Cantril, Iowa
Current Conditions -  °F | °C
As of 3:35 AM on Friday 31 Oct 2014 (Local Time) from KFFL Reporting Station
Unknown Precip Unknown Precip  
Wind Chill: 34°   Ceiling: 4400
Heat Index: 43°   Visibility: NA
Dew Point: 28°   Wind: 21mph
Humidity: 57%   Direction: 330°NNW
Pressure: 30.22"   Gusts: 31mph
Location:  40.64°N, 92.07°W
Report Text: KFFL 310835Z AUTO 33018G27KT -UP FEW032 OVC044 06/M02 A3022 RMK AO2
Loading
Personal Weather Stations






























Interactive Weather Map
Tropical Storm Tracking
New forecast layout! Learn more

10-Day Weather Forecast

Advertisements
Track Severe Weather on mobile